Time;durP1;ratioP1;P1;durP2;ratioP2;P2;SDS_P1;SDS_P2;PMS_P1;PMS_P2;Temp;Humidity;BMP_temperature;BMP_pressure;BME280_temperature;BME280_humidity;BME280_pressure;Samples;Min_cycle;Max_cycle;Signal;HPM_P1;HPM_P2
2023/05/29 00:00:20;;;;;;;17.30;7.53;;;11.50;99.90;;;;;;5068139;28;20132;-73
2023/05/29 00:02:49;;;;;;;16.58;7.53;;;11.50;99.90;;;;;;5066963;28;20417;-73
2023/05/29 00:05:16;;;;;;;17.15;7.47;;;11.50;99.90;;;;;;5066553;28;20039;-72
2023/05/29 00:07:41;;;;;;;17.25;7.20;;;11.50;99.90;;;;;;5068590;28;20040;-72
2023/05/29 00:10:09;;;;;;;16.83;7.55;;;11.50;99.90;;;;;;5067876;28;20389;-73
2023/05/29 00:12:35;;;;;;;19.38;7.28;;;11.50;99.90;;;;;;5070255;28;20039;-73
2023/05/29 00:15:03;;;;;;;20.15;7.72;;;11.50;99.90;;;;;;5071991;28;20439;-73
2023/05/29 00:17:31;;;;;;;17.95;7.28;;;11.50;99.90;;;;;;5072578;28;20034;-73
2023/05/29 00:19:58;;;;;;;17.17;7.60;;;11.50;99.90;;;;;;5072321;28;20020;-73
2023/05/29 00:22:25;;;;;;;17.70;7.40;;;11.40;99.90;;;;;;5072288;28;20465;-72
2023/05/29 00:24:50;;;;;;;15.75;6.88;;;11.20;99.90;;;;;;5072597;28;20020;-73
2023/05/29 00:27:16;;;;;;;16.58;7.35;;;11.10;99.90;;;;;;5071756;28;20108;-73
2023/05/29 00:29:42;;;;;;;13.05;7.43;;;11.20;99.90;;;;;;5071141;28;20025;-72
2023/05/29 00:32:07;;;;;;;13.82;6.95;;;11.10;99.90;;;;;;5071697;28;20039;-73
2023/05/29 00:34:33;;;;;;;16.42;7.30;;;11.10;99.90;;;;;;5070895;28;20461;-72
2023/05/29 00:36:59;;;;;;;18.45;6.78;;;11.10;99.90;;;;;;5071816;28;20039;-73
2023/05/29 00:39:25;;;;;;;14.95;7.25;;;11.10;99.90;;;;;;5072001;28;20544;-72
2023/05/29 00:41:51;;;;;;;17.33;7.95;;;11.00;99.90;;;;;;5072337;28;20028;-72
2023/05/29 00:44:20;;;;;;;12.63;6.70;;;11.00;99.90;;;;;;5071475;28;20110;-72
2023/05/29 00:46:47;;;;;;;19.63;7.13;;;11.00;99.90;;;;;;5071868;28;20032;-72
2023/05/29 00:49:14;;;;;;;16.73;6.88;;;10.90;99.90;;;;;;5069896;28;20547;-73
2023/05/29 00:51:41;;;;;;;18.00;6.95;;;10.90;99.90;;;;;;5072047;28;20025;-72
2023/05/29 00:54:12;;;;;;;23.38;7.35;;;10.90;99.90;;;;;;5071095;28;20453;-73
2023/05/29 00:56:44;;;;;;;22.40;6.72;;;10.90;99.90;;;;;;5070433;28;20036;-72
2023/05/29 00:59:11;;;;;;;18.30;7.63;;;10.80;99.90;;;;;;5071168;28;20035;-73
2023/05/29 01:01:39;;;;;;;19.17;7.60;;;10.70;99.90;;;;;;5071587;28;20040;-72
2023/05/29 01:04:08;;;;;;;18.13;7.68;;;10.70;99.90;;;;;;5071069;28;20073;-73
2023/05/29 01:06:35;;;;;;;18.25;7.63;;;10.60;99.90;;;;;;5071976;28;20467;-72
2023/05/29 01:09:01;;;;;;;23.27;8.30;;;10.50;99.90;;;;;;5071283;28;20373;-73
2023/05/29 01:11:52;;;;;;;16.33;7.05;;;10.40;99.90;;;;;;5071340;28;20029;-72
2023/05/29 01:14:29;;;;;;;15.85;7.43;;;10.40;99.90;;;;;;5070599;28;20097;-72
2023/05/29 01:17:17;;;;;;;15.73;7.28;;;10.40;99.90;;;;;;5071313;28;20567;-72
2023/05/29 01:20:09;;;;;;;14.52;6.97;;;10.40;99.90;;;;;;5071517;28;20078;-72
2023/05/29 01:22:58;;;;;;;21.90;7.60;;;10.40;99.90;;;;;;5071798;28;20021;-73
2023/05/29 01:25:36;;;;;;;18.88;6.97;;;10.30;99.90;;;;;;5070080;28;20040;-72
2023/05/29 01:28:06;;;;;;;14.55;6.97;;;10.30;99.90;;;;;;5071118;28;20051;-73
2023/05/29 01:30:33;;;;;;;19.92;7.07;;;10.30;99.90;;;;;;5071299;28;20028;-72
2023/05/29 01:32:59;;;;;;;17.83;7.20;;;10.30;99.90;;;;;;5071287;28;20036;-72
2023/05/29 01:35:25;;;;;;;24.52;7.60;;;10.30;99.90;;;;;;5070550;28;20028;-72
2023/05/29 01:37:51;;;;;;;17.55;6.85;;;10.40;99.90;;;;;;5071192;28;20103;-72
2023/05/29 01:40:17;;;;;;;16.73;7.15;;;10.40;99.90;;;;;;5070301;28;20166;-72
2023/05/29 01:42:43;;;;;;;16.08;6.63;;;10.40;99.90;;;;;;5071294;28;20060;-72
2023/05/29 01:45:10;;;;;;;16.40;6.60;;;10.40;99.90;;;;;;5070288;28;20102;-73
2023/05/29 01:47:35;;;;;;;13.48;6.05;;;10.50;99.90;;;;;;5070992;28;20093;-72
2023/05/29 01:50:04;;;;;;;15.13;6.85;;;10.50;99.90;;;;;;5071054;28;20032;-73
2023/05/29 01:52:30;;;;;;;14.43;6.05;;;10.60;99.90;;;;;;5070885;28;20086;-72
2023/05/29 01:54:56;;;;;;;16.40;6.68;;;10.70;99.90;;;;;;5069492;28;20025;-72
2023/05/29 01:57:22;;;;;;;13.13;6.43;;;10.70;99.90;;;;;;5069984;28;20052;-73
2023/05/29 01:59:49;;;;;;;15.93;7.18;;;10.70;99.90;;;;;;5070769;28;20032;-72
2023/05/29 02:02:14;;;;;;;17.80;7.25;;;10.70;99.90;;;;;;5069665;28;20490;-73
2023/05/29 02:04:41;;;;;;;16.75;6.68;;;10.70;99.90;;;;;;5070690;28;20028;-72
2023/05/29 02:07:07;;;;;;;16.23;7.03;;;10.50;99.90;;;;;;5069888;28;20024;-73
2023/05/29 02:09:34;;;;;;;18.88;7.70;;;10.20;99.90;;;;;;5070522;28;20074;-72
2023/05/29 02:12:00;;;;;;;13.48;7.15;;;10.10;99.90;;;;;;5070729;28;20029;-72
2023/05/29 02:14:26;;;;;;;18.48;7.30;;;10.00;99.90;;;;;;5069767;28;20249;-72
2023/05/29 02:16:51;;;;;;;16.63;7.43;;;10.00;99.90;;;;;;5070339;28;20472;-73
2023/05/29 02:19:18;;;;;;;22.00;7.05;;;10.00;99.90;;;;;;5068136;28;20036;-72
2023/05/29 02:21:44;;;;;;;14.93;6.38;;;10.00;99.90;;;;;;5070482;28;20364;-72
2023/05/29 02:24:09;;;;;;;15.45;6.43;;;10.10;99.90;;;;;;5069515;28;20024;-73
2023/05/29 02:26:36;;;;;;;15.07;6.93;;;10.10;99.90;;;;;;5070330;28;20443;-72
2023/05/29 02:29:02;;;;;;;13.38;6.68;;;10.20;99.90;;;;;;5070114;28;20670;-73
2023/05/29 02:31:28;;;;;;;15.85;6.85;;;10.20;99.90;;;;;;5069606;28;20465;-73
2023/05/29 02:33:54;;;;;;;15.68;7.22;;;10.20;99.90;;;;;;5068662;28;20031;-72
2023/05/29 02:36:20;;;;;;;13.50;6.75;;;10.10;99.90;;;;;;5068798;28;20083;-72
2023/05/29 02:38:45;;;;;;;18.83;7.80;;;10.10;99.90;;;;;;5070048;28;20039;-72
2023/05/29 02:41:11;;;;;;;16.48;7.97;;;10.10;99.90;;;;;;5069169;28;20033;-72
2023/05/29 02:43:37;;;;;;;16.92;7.45;;;10.20;99.90;;;;;;5069932;28;20802;-73
2023/05/29 02:46:02;;;;;;;17.50;7.10;;;10.20;99.90;;;;;;5068490;28;20066;-72
2023/05/29 02:48:29;;;;;;;16.77;7.57;;;10.00;99.90;;;;;;5068939;28;20075;-72
2023/05/29 02:50:54;;;;;;;17.05;7.28;;;9.90;99.90;;;;;;5069741;28;20021;-72
2023/05/29 02:53:20;;;;;;;14.00;6.82;;;9.70;99.90;;;;;;5068891;28;20357;-73
2023/05/29 02:55:46;;;;;;;16.58;7.18;;;9.70;99.90;;;;;;5069629;28;20028;-72
2023/05/29 02:58:12;;;;;;;16.70;7.15;;;9.70;99.90;;;;;;5067497;28;20058;-72
2023/05/29 03:00:38;;;;;;;12.98;6.88;;;9.70;99.90;;;;;;5069563;28;20516;-72
2023/05/29 03:03:04;;;;;;;21.73;7.65;;;9.70;99.90;;;;;;5069348;28;20075;-72
2023/05/29 03:05:30;;;;;;;14.13;7.50;;;9.60;99.90;;;;;;5068460;28;20056;-73
2023/05/29 03:07:56;;;;;;;17.98;7.63;;;9.50;99.90;;;;;;5069524;28;20488;-72
2023/05/29 03:10:22;;;;;;;18.80;7.25;;;9.40;99.90;;;;;;5068364;28;20032;-73
2023/05/29 03:12:47;;;;;;;15.82;7.30;;;9.30;99.90;;;;;;5069557;28;20024;-73
2023/05/29 03:15:14;;;;;;;17.60;7.10;;;9.30;99.90;;;;;;5068638;28;20493;-72
2023/05/29 03:17:39;;;;;;;13.55;6.65;;;9.20;99.90;;;;;;5069228;28;20131;-72
2023/05/29 03:20:07;;;;;;;14.35;6.68;;;9.10;99.90;;;;;;5069231;28;20113;-72
2023/05/29 03:22:36;;;;;;;15.77;7.10;;;9.20;99.90;;;;;;5067399;28;20024;-72
2023/05/29 03:25:03;;;;;;;16.60;6.60;;;9.20;99.90;;;;;;5069078;28;20032;-72
2023/05/29 03:27:29;;;;;;;17.73;7.75;;;9.10;99.90;;;;;;5068102;28;20041;-73
2023/05/29 03:29:55;;;;;;;17.95;7.60;;;9.20;99.90;;;;;;5069155;28;20579;-72
2023/05/29 03:32:20;;;;;;;15.75;7.18;;;9.30;99.90;;;;;;5066767;28;20111;-72
2023/05/29 03:34:47;;;;;;;16.13;6.68;;;9.30;99.90;;;;;;5068945;28;20035;-73
2023/05/29 03:37:13;;;;;;;15.63;6.88;;;9.30;99.90;;;;;;5066646;28;20056;-73
2023/05/29 03:39:39;;;;;;;18.30;7.07;;;9.30;99.90;;;;;;5069043;28;20127;-72
2023/05/29 03:42:05;;;;;;;13.93;6.60;;;9.40;99.90;;;;;;5068796;28;20032;-72
2023/05/29 03:44:30;;;;;;;12.63;6.72;;;9.30;99.90;;;;;;5068119;28;20109;-72
2023/05/29 03:46:56;;;;;;;13.75;6.53;;;9.40;99.90;;;;;;5068330;28;20102;-73
2023/05/29 03:49:22;;;;;;;15.13;6.75;;;9.50;99.90;;;;;;5068077;28;20308;-73
2023/05/29 03:51:47;;;;;;;14.10;6.40;;;9.40;99.90;;;;;;5069059;28;20377;-72
2023/05/29 03:54:13;;;;;;;13.98;6.80;;;9.40;99.90;;;;;;5068162;28;20025;-73
2023/05/29 03:56:39;;;;;;;14.63;6.72;;;9.50;99.90;;;;;;5068688;28;20411;-73
2023/05/29 03:59:04;;;;;;;14.00;6.65;;;9.50;99.90;;;;;;5068679;28;20033;-72
2023/05/29 04:01:30;;;;;;;15.23;6.95;;;9.40;99.90;;;;;;5066603;28;20020;-72
2023/05/29 04:03:55;;;;;;;11.95;6.63;;;9.40;99.90;;;;;;5068756;28;20048;-73
2023/05/29 04:06:21;;;;;;;14.05;6.53;;;9.40;99.90;;;;;;5067774;28;20028;-73
2023/05/29 04:08:47;;;;;;;15.65;6.70;;;9.50;99.90;;;;;;5068588;28;20024;-72
2023/05/29 04:11:13;;;;;;;16.25;6.88;;;9.30;99.90;;;;;;5067924;28;20380;-74
2023/05/29 04:13:39;;;;;;;15.70;6.57;;;9.20;99.90;;;;;;5067212;28;20123;-72
2023/05/29 04:16:05;;;;;;;14.40;6.93;;;9.40;99.90;;;;;;5068650;28;20115;-72
2023/05/29 04:18:31;;;;;;;12.50;6.22;;;9.50;99.90;;;;;;5067696;28;20036;-72
2023/05/29 04:20:57;;;;;;;19.48;8.50;;;9.60;99.90;;;;;;5068324;28;20111;-73
2023/05/29 04:23:22;;;;;;;14.82;7.15;;;9.80;99.90;;;;;;5067663;28;20514;-72
2023/05/29 04:25:50;;;;;;;18.05;7.78;;;9.80;99.90;;;;;;5068237;28;20515;-73
2023/05/29 04:28:16;;;;;;;16.17;7.43;;;9.90;99.90;;;;;;5067582;28;20112;-73
2023/05/29 04:30:42;;;;;;;14.07;6.60;;;10.10;99.90;;;;;;5068241;28;20121;-73
2023/05/29 04:33:09;;;;;;;12.88;6.78;;;10.20;99.90;;;;;;5068411;28;20107;-73
2023/05/29 04:35:35;;;;;;;15.80;7.30;;;10.30;99.90;;;;;;5067644;28;20028;-73
2023/05/29 04:38:01;;;;;;;11.23;6.30;;;10.40;99.90;;;;;;5068339;28;20033;-72
2023/05/29 04:40:26;;;;;;;16.63;7.05;;;10.40;99.90;;;;;;5067424;28;20052;-72
2023/05/29 04:42:52;;;;;;;18.08;7.28;;;10.50;99.90;;;;;;5068665;28;20037;-73
2023/05/29 04:45:20;;;;;;;16.67;6.82;;;10.70;99.90;;;;;;5067496;28;20029;-73
2023/05/29 04:47:46;;;;;;;15.25;7.03;;;10.70;99.90;;;;;;5068335;28;20029;-73
2023/05/29 04:50:17;;;;;;;15.52;6.85;;;10.80;99.90;;;;;;5068118;28;20029;-74
2023/05/29 04:52:43;;;;;;;20.27;7.93;;;10.90;99.90;;;;;;5067999;28;20516;-72
2023/05/29 04:55:10;;;;;;;22.23;7.80;;;10.90;99.90;;;;;;5068313;28;20035;-72
2023/05/29 04:57:36;;;;;;;18.08;7.78;;;11.00;99.90;;;;;;5067507;28;20327;-73
2023/05/29 05:00:06;;;;;;;14.50;7.00;;;11.10;99.90;;;;;;5072319;28;20488;-72
2023/05/29 05:02:32;;;;;;;;;;;11.20;99.90;;;;;;5071483;28;20412;-72
2023/05/29 05:04:58;;;;;;;15.88;6.45;;;11.30;99.90;;;;;;5071953;28;19908;-73
2023/05/29 05:07:24;;;;;;;20.95;7.18;;;11.50;99.90;;;;;;5070897;28;20111;-72
2023/05/29 05:09:50;;;;;;;15.18;6.80;;;11.70;99.90;;;;;;5070430;28;20850;-72
2023/05/29 05:12:15;;;;;;;18.52;7.32;;;11.90;99.90;;;;;;5071350;28;20031;-75
2023/05/29 05:14:41;;;;;;;24.48;7.35;;;12.10;99.90;;;;;;5071381;28;20028;-73
2023/05/29 05:17:07;;;;;;;16.33;7.95;;;12.30;99.90;;;;;;5070199;28;20048;-73
2023/05/29 05:19:32;;;;;;;17.90;7.43;;;12.40;99.90;;;;;;5071079;28;20884;-73
2023/05/29 05:21:58;;;;;;;16.23;6.82;;;12.40;99.90;;;;;;5071630;28;20029;-73
2023/05/29 05:24:23;;;;;;;17.23;7.40;;;12.50;99.90;;;;;;5069217;28;20021;-73
2023/05/29 05:26:49;;;;;;;14.50;6.68;;;12.60;99.90;;;;;;5071568;28;20392;-73
2023/05/29 05:29:15;;;;;;;17.85;7.63;;;12.80;99.90;;;;;;5071153;28;20029;-74
2023/05/29 05:31:40;;;;;;;18.73;7.55;;;12.90;99.90;;;;;;5070850;28;20024;-73
2023/05/29 05:34:06;;;;;;;18.67;7.60;;;12.90;99.90;;;;;;5071431;28;20021;-73
2023/05/29 05:36:32;;;;;;;15.68;7.47;;;13.00;99.90;;;;;;5070713;28;20039;-72
2023/05/29 05:38:58;;;;;;;20.83;7.38;;;13.20;99.90;;;;;;5071171;28;20040;-73
2023/05/29 05:41:23;;;;;;;15.27;6.40;;;13.50;99.90;;;;;;5070520;28;20024;-73
2023/05/29 05:43:50;;;;;;;14.93;7.03;;;13.70;99.90;;;;;;5071208;28;20048;-73
2023/05/29 05:46:17;;;;;;;19.48;7.53;;;14.00;99.90;;;;;;5070984;28;20380;-75
2023/05/29 05:48:42;;;;;;;16.50;7.25;;;14.20;99.90;;;;;;5069264;28;20039;-73
2023/05/29 05:51:08;;;;;;;18.52;6.55;;;14.30;99.90;;;;;;5071108;28;20451;-73
2023/05/29 05:53:33;;;;;;;15.15;7.20;;;14.40;99.90;;;;;;5069972;28;20028;-73
2023/05/29 05:56:00;;;;;;;11.63;6.00;;;14.50;99.90;;;;;;5070892;28;20112;-74
2023/05/29 05:58:25;;;;;;;10.88;5.72;;;14.60;99.90;;;;;;5070072;28;20039;-73
2023/05/29 06:00:52;;;;;;;13.55;6.13;;;14.90;99.90;;;;;;5070909;28;20025;-74
2023/05/29 06:03:18;;;;;;;15.45;5.97;;;15.10;99.90;;;;;;5068672;28;20058;-76
2023/05/29 06:05:43;;;;;;;15.68;6.22;;;15.20;99.90;;;;;;5069011;28;20033;-73
2023/05/29 06:08:09;;;;;;;13.50;6.00;;;15.40;99.90;;;;;;5070533;28;20025;-74
2023/05/29 06:10:35;;;;;;;11.60;5.68;;;15.60;99.90;;;;;;5069380;28;20036;-74
2023/05/29 06:13:01;;;;;;;12.48;5.72;;;15.80;99.90;;;;;;5070745;28;20594;-74
2023/05/29 06:15:27;;;;;;;15.68;5.63;;;16.00;99.90;;;;;;5069882;28;20036;-74
2023/05/29 06:17:55;;;;;;;14.05;5.38;;;16.10;99.90;;;;;;5070620;28;20037;-74
2023/05/29 06:20:21;;;;;;;13.07;5.65;;;16.30;99.90;;;;;;5069856;28;20064;-75
2023/05/29 06:22:50;;;;;;;11.98;5.80;;;16.50;99.90;;;;;;5070488;28;20377;-74
2023/05/29 06:25:19;;;;;;;12.82;5.50;;;16.60;99.90;;;;;;5070211;28;20044;-74
2023/05/29 06:27:45;;;;;;;12.95;5.40;;;16.70;99.90;;;;;;5069913;28;20036;-74
2023/05/29 06:30:12;;;;;;;12.00;5.20;;;16.90;99.90;;;;;;5070328;28;20024;-73
2023/05/29 06:32:38;;;;;;;10.32;5.47;;;17.20;99.90;;;;;;5069541;28;20361;-74
2023/05/29 06:35:06;;;;;;;12.18;5.93;;;17.40;99.90;;;;;;5070546;28;20116;-73
2023/05/29 06:37:31;;;;;;;12.35;5.60;;;17.60;99.90;;;;;;5069421;28;20036;-74
2023/05/29 06:39:57;;;;;;;13.20;6.32;;;17.80;99.90;;;;;;5070636;28;20028;-73
2023/05/29 06:42:22;;;;;;;15.68;5.57;;;17.70;99.90;;;;;;5069654;28;20111;-75
2023/05/29 06:44:48;;;;;;;12.23;6.32;;;17.80;99.90;;;;;;5070075;28;20056;-74
2023/05/29 06:47:14;;;;;;;12.57;5.13;;;17.90;99.90;;;;;;5070009;28;20070;-74
2023/05/29 06:49:39;;;;;;;11.73;5.60;;;17.80;99.90;;;;;;5067774;28;20625;-73
2023/05/29 06:52:05;;;;;;;13.00;5.40;;;17.80;99.90;;;;;;5069861;28;20036;-73
2023/05/29 06:54:31;;;;;;;13.02;5.60;;;18.00;99.90;;;;;;5069167;28;20028;-73
2023/05/29 06:56:56;;;;;;;9.77;5.10;;;18.10;99.90;;;;;;5069746;28;20040;-74
2023/05/29 06:59:22;;;;;;;14.75;5.00;;;18.20;99.90;;;;;;5069445;28;20036;-75
2023/05/29 07:01:48;;;;;;;10.68;5.38;;;18.30;99.90;;;;;;5068037;28;20028;-73
2023/05/29 07:04:13;;;;;;;12.40;5.65;;;18.10;99.90;;;;;;5069795;28;20461;-73
2023/05/29 07:06:39;;;;;;;12.18;5.40;;;18.20;99.90;;;;;;5068754;28;20036;-73
2023/05/29 07:09:05;;;;;;;9.63;4.80;;;18.30;99.90;;;;;;5069647;28;20465;-73
2023/05/29 07:11:30;;;;;;;12.05;5.22;;;18.30;99.90;;;;;;5067249;28;20039;-73
2023/05/29 07:13:56;;;;;;;12.63;5.30;;;18.40;99.90;;;;;;5069331;28;20029;-73
2023/05/29 07:16:22;;;;;;;10.35;5.25;;;18.50;99.90;;;;;;5069076;28;20035;-74
2023/05/29 07:18:48;;;;;;;16.45;5.80;;;18.60;99.90;;;;;;5067722;28;20072;-73
2023/05/29 07:21:13;;;;;;;11.90;4.95;;;18.80;99.90;;;;;;5068781;28;20027;-73
2023/05/29 07:23:40;;;;;;;11.52;5.15;;;18.90;99.90;;;;;;5068430;28;20028;-74
2023/05/29 07:26:05;;;;;;;14.75;5.43;;;19.10;99.90;;;;;;5069208;28;20408;-73
2023/05/29 07:28:31;;;;;;;15.68;5.40;;;19.20;99.90;;;;;;5068372;28;20028;-74
2023/05/29 07:30:57;;;;;;;11.82;5.07;;;19.20;99.90;;;;;;5069342;28;20112;-74
2023/05/29 07:33:22;;;;;;;9.95;4.97;;;19.30;99.90;;;;;;5068961;28;20056;-74
2023/05/29 07:35:48;;;;;;;12.20;5.32;;;19.40;99.90;;;;;;5068526;28;20028;-73
2023/05/29 07:38:14;;;;;;;10.48;4.95;;;19.70;99.90;;;;;;5069107;28;20119;-73
2023/05/29 07:40:39;;;;;;;10.85;4.88;;;19.90;99.90;;;;;;5068191;28;20036;-73
2023/05/29 07:43:05;;;;;;;7.72;4.47;;;20.10;99.90;;;;;;5069413;28;20477;-74
2023/05/29 07:45:30;;;;;;;15.10;5.32;;;20.20;99.90;;;;;;5068289;28;20032;-73
2023/05/29 07:47:56;;;;;;;11.27;5.00;;;20.30;99.90;;;;;;5069092;28;20082;-73
2023/05/29 07:50:22;;;;;;;11.45;5.40;;;20.40;99.90;;;;;;5069160;28;20083;-73
2023/05/29 07:52:47;;;;;;;11.15;4.93;;;20.50;99.90;;;;;;5068546;28;20034;-74
2023/05/29 07:55:13;;;;;;;12.02;5.35;;;20.70;99.90;;;;;;5069146;28;20024;-73
2023/05/29 07:57:39;;;;;;;12.98;4.88;;;20.90;99.90;;;;;;5066660;28;20040;-74
2023/05/29 08:00:05;;;;;;;12.32;5.13;;;21.10;99.10;;;;;;5068957;28;20043;-74
2023/05/29 08:02:31;;;;;;;10.48;4.90;;;21.30;97.80;;;;;;5067920;28;20056;-74
2023/05/29 08:04:57;;;;;;;12.95;5.20;;;21.20;96.90;;;;;;5067477;28;20576;-74
2023/05/29 08:07:22;;;;;;;9.90;4.93;;;21.30;97.00;;;;;;5067244;28;20074;-74
2023/05/29 08:09:48;;;;;;;8.45;4.28;;;21.60;97.70;;;;;;5066811;28;20027;-74
2023/05/29 08:12:14;;;;;;;12.50;4.82;;;21.90;96.80;;;;;;5068771;28;20029;-74
2023/05/29 08:14:39;;;;;;;13.13;4.68;;;21.90;94.70;;;;;;5068059;28;20437;-74
2023/05/29 08:17:06;;;;;;;11.70;4.50;;;21.60;95.30;;;;;;5068559;28;20028;-74
2023/05/29 08:19:32;;;;;;;11.63;4.85;;;21.60;95.20;;;;;;5068031;28;20035;-74
2023/05/29 08:21:57;;;;;;;10.27;5.15;;;21.60;93.50;;;;;;5068836;28;20028;-73
2023/05/29 08:24:23;;;;;;;9.45;4.82;;;21.60;93.70;;;;;;5068803;28;20025;-74
2023/05/29 08:26:48;;;;;;;11.90;5.32;;;21.70;94.20;;;;;;5067984;28;20033;-73
2023/05/29 08:29:14;;;;;;;13.52;4.82;;;21.90;93.00;;;;;;5068730;28;20054;-74
2023/05/29 08:31:40;;;;;;;11.23;4.47;;;22.00;93.60;;;;;;5066531;28;20417;-73
2023/05/29 08:34:06;;;;;;;12.68;4.70;;;22.20;93.70;;;;;;5071552;28;20024;-74
2023/05/29 08:36:32;;;;;;;10.88;5.15;;;22.20;93.40;;;;;;5071851;28;20225;-74
2023/05/29 08:38:58;;;;;;;10.23;4.95;;;22.30;93.10;;;;;;5072695;28;20085;-74
2023/05/29 08:41:41;;;;;;;11.80;5.03;;;22.50;92.30;;;;;;5072528;28;20124;-74
2023/05/29 08:44:09;;;;;;;10.20;4.97;;;22.30;92.00;;;;;;5072904;28;20021;-73
2023/05/29 08:46:36;;;;;;;11.93;4.60;;;22.10;90.80;;;;;;5071748;28;20029;-73
2023/05/29 08:49:03;;;;;;;9.95;4.60;;;22.20;91.60;;;;;;5071044;28;20020;-73
2023/05/29 08:51:36;;;;;;;11.43;4.57;;;22.30;92.20;;;;;;5071915;28;20380;-74
2023/05/29 08:54:02;;;;;;;11.30;4.40;;;22.40;86.30;;;;;;5072166;28;20024;-74
2023/05/29 08:56:28;;;;;;;7.32;4.00;;;22.50;90.00;;;;;;5070176;28;20119;-74
2023/05/29 08:58:54;;;;;;;8.68;4.45;;;22.80;88.00;;;;;;5071769;28;20169;-73
2023/05/29 09:01:22;;;;;;;8.50;4.07;;;22.80;86.40;;;;;;5072297;28;20102;-73
2023/05/29 09:03:47;;;;;;;9.43;4.07;;;22.70;86.30;;;;;;5069511;28;20649;-73
2023/05/29 09:06:14;;;;;;;11.63;4.43;;;22.80;82.80;;;;;;5072206;28;20025;-74
2023/05/29 09:08:39;;;;;;;9.50;4.10;;;22.70;83.70;;;;;;5071221;28;20033;-73
2023/05/29 09:11:05;;;;;;;14.07;4.55;;;22.70;80.70;;;;;;5071881;28;20158;-74
2023/05/29 09:13:31;;;;;;;10.38;4.47;;;22.70;80.10;;;;;;5071506;28;20043;-74
2023/05/29 09:16:00;;;;;;;8.40;4.15;;;22.70;80.10;;;;;;5071866;28;20032;-71
2023/05/29 09:18:30;;;;;;;8.63;4.15;;;22.70;78.80;;;;;;5070736;28;20421;-73
2023/05/29 09:20:57;;;;;;;10.45;4.10;;;22.60;78.60;;;;;;5071790;28;20090;-72
2023/05/29 09:23:23;;;;;;;13.40;4.30;;;22.50;79.00;;;;;;5071880;28;20031;-74
2023/05/29 09:25:53;;;;;;;10.20;4.32;;;22.70;81.60;;;;;;5070999;28;20217;-72
2023/05/29 09:28:20;;;;;;;13.77;4.32;;;22.90;78.90;;;;;;5071821;28;20036;-71
2023/05/29 09:30:47;;;;;;;8.98;4.00;;;22.80;78.30;;;;;;5070907;28;20098;-73
2023/05/29 09:33:14;;;;;;;6.85;3.60;;;23.00;78.30;;;;;;5071725;28;20051;-73
2023/05/29 09:35:40;;;;;;;11.82;4.43;;;23.10;77.20;;;;;;5070837;28;20033;-73
2023/05/29 09:38:07;;;;;;;8.55;3.90;;;23.10;76.60;;;;;;5071601;28;20035;-73
2023/05/29 09:40:35;;;;;;;9.48;3.97;;;22.90;72.20;;;;;;5069257;28;20040;-74
2023/05/29 09:43:17;;;;;;;9.73;3.80;;;22.80;73.20;;;;;;5071511;28;20041;-73
2023/05/29 09:45:45;;;;;;;12.68;5.00;;;23.10;75.30;;;;;;5068267;28;20028;-73
2023/05/29 09:48:25;;;;;;;8.20;3.75;;;23.40;72.30;;;;;;5070162;28;20032;-72
2023/05/29 09:50:51;;;;;;;11.50;4.05;;;23.40;71.50;;;;;;5070972;28;20028;-73
2023/05/29 09:53:19;;;;;;;8.60;4.25;;;23.40;68.30;;;;;;5071413;28;20042;-72
2023/05/29 09:55:50;;;;;;;10.57;4.32;;;23.40;70.70;;;;;;5069045;28;20092;-73
2023/05/29 09:58:17;;;;;;;9.73;4.28;;;23.30;72.70;;;;;;5071220;28;20031;-73
2023/05/29 10:00:43;;;;;;;10.18;3.83;;;23.50;71.60;;;;;;5070301;28;20074;-73
2023/05/29 10:03:09;;;;;;;8.57;4.10;;;23.50;70.80;;;;;;5070718;28;20060;-72
2023/05/29 10:05:36;;;;;;;11.18;3.90;;;23.70;68.50;;;;;;5070352;28;20029;-74
2023/05/29 10:08:05;;;;;;;7.60;4.00;;;23.60;65.20;;;;;;5071026;28;20086;-73
2023/05/29 10:10:31;;;;;;;10.50;3.78;;;23.80;67.20;;;;;;5070780;28;20025;-73
2023/05/29 10:13:03;;;;;;;6.63;3.38;;;24.00;64.50;;;;;;5070614;28;20110;-73
2023/05/29 10:15:30;;;;;;;8.40;3.80;;;23.90;62.20;;;;;;5070863;28;20036;-72
2023/05/29 10:18:02;;;;;;;9.13;3.90;;;23.80;63.10;;;;;;5069933;28;20036;-74
2023/05/29 10:20:28;;;;;;;8.35;3.97;;;23.90;65.60;;;;;;5070787;28;20366;-73
2023/05/29 10:22:56;;;;;;;11.55;3.72;;;24.00;64.50;;;;;;5069925;28;20055;-72
2023/05/29 10:25:23;;;;;;;17.55;4.10;;;24.00;63.60;;;;;;5070692;28;20024;-71
2023/05/29 10:27:49;;;;;;;7.75;3.90;;;23.90;62.70;;;;;;5069692;28;20381;-73
2023/05/29 10:30:28;;;;;;;8.43;4.55;;;23.90;62.70;;;;;;5070577;28;20071;-74
2023/05/29 10:33:23;;;;;;;10.23;4.15;;;23.90;63.90;;;;;;5069636;28;20704;-74
2023/05/29 10:36:12;;;;;;;10.68;3.50;;;24.00;64.00;;;;;;5043267;28;20094;-73
2023/05/29 10:38:40;;;;;;;9.63;3.90;;;24.20;66.80;;;;;;5069179;28;20040;-74
2023/05/29 10:41:27;;;;;;;7.78;3.90;;;24.50;62.60;;;;;;5070384;28;20036;-73
2023/05/29 10:44:03;;;;;;;7.70;4.32;;;24.20;60.60;;;;;;5069539;28;20040;-73
2023/05/29 10:46:47;;;;;;;10.35;4.28;;;24.10;61.50;;;;;;5070202;28;20029;-72
2023/05/29 10:49:20;;;;;;;12.90;4.10;;;24.20;61.50;;;;;;5070226;28;20035;-74
2023/05/29 10:51:48;;;;;;;7.75;4.68;;;24.20;63.70;;;;;;5069286;28;20029;-72
2023/05/29 10:54:14;;;;;;;7.85;4.13;;;24.30;63.10;;;;;;5069680;28;20481;-72
2023/05/29 10:56:41;;;;;;;7.97;4.35;;;24.20;63.30;;;;;;5069019;28;20024;-73
2023/05/29 10:59:08;;;;;;;13.15;3.72;;;24.30;62.50;;;;;;5069947;28;20028;-71
2023/05/29 11:01:37;;;;;;;10.10;4.28;;;24.10;59.70;;;;;;5069652;28;20024;-74
2023/05/29 11:04:31;;;;;;;10.93;4.05;;;23.90;61.30;;;;;;5069932;28;20064;-73
2023/05/29 11:06:58;;;;;;;10.70;4.07;;;24.40;68.40;;;;;;5066589;28;20036;-74
2023/05/29 11:09:29;;;;;;;7.95;4.28;;;25.10;64.80;;;;;;5069427;28;20503;-72
2023/05/29 11:12:33;;;;;;;11.35;4.05;;;25.30;59.70;;;;;;5069070;28;20477;-73
2023/05/29 11:15:25;;;;;;;9.15;4.50;;;25.20;58.50;;;;;;5067493;28;20028;-72
2023/05/29 11:17:53;;;;;;;10.82;4.03;;;25.40;57.50;;;;;;5065749;28;20052;-73
2023/05/29 11:20:59;;;;;;;6.85;4.10;;;25.10;58.50;;;;;;5068158;28;20029;-72
2023/05/29 11:23:31;;;;;;;6.50;3.80;;;25.00;59.30;;;;;;5007118;28;20118;-73
2023/05/29 11:25:58;;;;;;;9.70;4.43;;;25.10;57.80;;;;;;5006411;28;20145;-71
2023/05/29 11:28:25;;;;;;;7.65;3.45;;;25.20;57.20;;;;;;5007099;28;20045;-73
2023/05/29 11:30:52;;;;;;;7.55;4.25;;;25.10;55.50;;;;;;5006077;28;20053;-72
2023/05/29 11:33:26;;;;;;;6.90;4.38;;;25.20;56.30;;;;;;5006932;28;20415;-72
2023/05/29 11:36:00;;;;;;;13.32;4.05;;;25.70;59.30;;;;;;5006067;28;20042;-73
2023/05/29 11:38:27;;;;;;;7.57;4.13;;;25.80;56.10;;;;;;5006894;28;20137;-72
2023/05/29 11:40:55;;;;;;;7.28;4.22;;;25.80;54.60;;;;;;5005995;28;20619;-73
2023/05/29 11:43:22;;;;;;;9.23;3.88;;;25.60;54.60;;;;;;5006834;28;20034;-73
2023/05/29 11:45:48;;;;;;;7.75;3.95;;;25.70;55.70;;;;;;5005984;28;20208;-73
2023/05/29 11:48:13;;;;;;;7.18;3.97;;;25.50;54.30;;;;;;5006811;28;20451;-73
2023/05/29 11:50:39;;;;;;;8.23;3.90;;;25.10;53.30;;;;;;5006247;28;20129;-75
2023/05/29 11:53:07;;;;;;;6.60;4.05;;;25.30;56.10;;;;;;5010463;28;20121;-72
2023/05/29 11:55:33;;;;;;;8.18;4.20;;;25.20;53.70;;;;;;5069166;28;20064;-73
2023/05/29 11:58:00;;;;;;;8.48;4.40;;;25.10;55.70;;;;;;5068179;28;20056;-72
2023/05/29 12:00:34;;;;;;;7.70;4.10;;;25.50;54.70;;;;;;5069057;28;20082;-73
2023/05/29 12:03:06;;;;;;;10.05;4.22;;;25.50;55.00;;;;;;5068186;28;20076;-72
2023/05/29 12:05:43;;;;;;;9.07;4.25;;;25.50;53.00;;;;;;5067568;28;20025;-72
2023/05/29 12:08:09;;;;;;;8.30;4.53;;;25.20;52.30;;;;;;5068376;28;20119;-73
2023/05/29 12:10:35;;;;;;;11.57;4.40;;;25.30;54.20;;;;;;5069119;28;20115;-73
2023/05/29 12:13:00;;;;;;;7.50;4.57;;;25.50;54.30;;;;;;5068093;28;20063;-73
2023/05/29 12:15:27;;;;;;;13.10;4.57;;;25.90;55.30;;;;;;5068769;28;20360;-73
2023/05/29 12:17:54;;;;;;;8.52;4.30;;;25.60;53.10;;;;;;5067927;28;20040;-73
2023/05/29 12:20:23;;;;;;;7.97;4.55;;;25.40;54.60;;;;;;5069077;28;20075;-73
2023/05/29 12:22:49;;;;;;;7.65;4.40;;;25.50;54.10;;;;;;5066775;28;20036;-73
2023/05/29 12:25:16;;;;;;;7.95;4.15;;;25.10;53.00;;;;;;5068880;28;20384;-72
2023/05/29 12:27:43;;;;;;;7.40;4.03;;;25.30;54.70;;;;;;5068166;28;20025;-75
2023/05/29 12:30:16;;;;;;;11.60;4.35;;;25.40;54.30;;;;;;5068561;28;20528;-72
2023/05/29 12:32:46;;;;;;;10.63;4.47;;;25.40;53.00;;;;;;5068138;28;20036;-75
2023/05/29 12:35:13;;;;;;;8.93;4.70;;;25.40;53.00;;;;;;5068457;28;20757;-71
2023/05/29 12:38:11;;;;;;;8.52;4.00;;;25.40;50.90;;;;;;5067180;28;20103;-72
2023/05/29 12:40:38;;;;;;;10.25;4.05;;;25.20;52.00;;;;;;5056265;28;20075;-72
2023/05/29 12:43:06;;;;;;;10.68;4.15;;;25.20;52.00;;;;;;5067814;28;20031;-72